Time;durP1;ratioP1;P1;durP2;ratioP2;P2;SDS_P1;SDS_P2;PMS_P1;PMS_P2;Temp;Humidity;BMP_temperature;BMP_pressure;BME280_temperature;BME280_humidity;BME280_pressure;Samples;Min_cycle;Max_cycle;Signal;HPM_P1;HPM_P2
2021/05/22 00:00:09;;;;;;;7.30;3.95;;;410.00;1817.60;;;;;;5016170;28;20383;-90
2021/05/22 00:02:35;;;;;;;5.13;3.42;;;410.10;1792.00;;;;;;5016457;28;20022;-91
2021/05/22 00:05:01;;;;;;;7.43;4.30;;;409.90;1843.20;;;;;;5016346;28;20121;-91
2021/05/22 00:07:27;;;;;;;5.25;3.63;;;410.00;1817.60;;;;;;5016499;28;20032;-91
2021/05/22 00:09:52;;;;;;;6.43;3.90;;;410.00;1817.60;;;;;;5016152;28;20029;-91
2021/05/22 00:12:18;;;;;;;5.95;4.13;;;410.00;1817.60;;;;;;5015924;28;20029;-91
2021/05/22 00:14:44;;;;;;;6.32;4.63;;;410.00;1817.60;;;;;;5015925;28;20433;-92
2021/05/22 00:17:10;;;;;;;8.75;4.18;;;410.00;1817.60;;;;;;5016026;28;20026;-91
2021/05/22 00:19:36;;;;;;;9.48;4.28;;;410.00;1817.60;;;;;;5016790;28;20021;-92
2021/05/22 00:22:03;;;;;;;5.35;3.97;;;409.90;1843.20;;;;;;5016881;28;20022;-91
2021/05/22 00:24:29;;;;;;;10.73;3.97;;;409.90;1817.60;;;;;;5015827;28;20045;-91
2021/05/22 00:26:55;;;;;;;9.05;4.05;;;409.90;1817.60;;;;;;5016904;28;20030;-91
2021/05/22 00:29:21;;;;;;;14.75;3.95;;;409.90;1817.60;;;;;;5049010;28;20021;-91
2021/05/22 00:31:47;;;;;;;11.73;4.18;;;409.80;1817.60;;;;;;5015384;28;20539;-91
2021/05/22 00:34:13;;;;;;;6.57;4.07;;;409.80;1817.60;;;;;;5014969;28;20039;-92
2021/05/22 00:36:38;;;;;;;6.07;4.28;;;409.80;1817.60;;;;;;5049055;28;20109;-91
2021/05/22 00:39:05;;;;;;;6.43;3.92;;;409.80;1817.60;;;;;;5048941;28;20034;-91
2021/05/22 00:41:31;;;;;;;5.18;4.32;;;409.80;1817.60;;;;;;5015570;28;20022;-91
2021/05/22 00:43:57;;;;;;;8.93;4.32;;;409.80;1817.60;;;;;;5015414;28;20172;-91
2021/05/22 00:46:23;;;;;;;6.20;4.35;;;409.80;1817.60;;;;;;5015377;28;20088;-91
2021/05/22 00:48:49;;;;;;;7.32;4.68;;;;;;;;;;5015453;28;20076;-91
2021/05/22 00:51:15;;;;;;;9.48;4.82;;;;;;;;;;5015335;28;20097;-91
2021/05/22 00:53:42;;;;;;;9.82;4.40;;;;;;;;;;5015422;28;20041;-91
2021/05/22 00:56:08;;;;;;;5.60;4.20;;;;;;;;;;5034154;28;20042;-91
2021/05/22 00:58:35;;;;;;;9.40;4.60;;;;;;;;;;5035071;28;20473;-91
2021/05/22 01:01:04;;;;;;;8.23;4.28;;;;;;;;;;5034913;28;20024;-91
2021/05/22 01:03:36;;;;;;;5.78;4.00;;;409.70;1843.20;;;;;;5035029;28;20079;-91
2021/05/22 01:06:23;;;;;;;8.90;3.83;;;409.70;1843.20;;;;;;5034898;28;20030;-91
2021/05/22 01:09:07;;;;;;;7.82;4.40;;;409.60;1817.60;;;;;;5034789;28;20022;-91
2021/05/22 01:11:40;;;;;;;11.85;4.30;;;409.70;1817.60;;;;;;5035059;28;20026;-91
2021/05/22 01:14:10;;;;;;;8.68;4.85;;;409.70;1817.60;;;;;;5035888;28;20079;-91
2021/05/22 01:16:38;;;;;;;5.95;4.40;;;409.70;1843.20;;;;;;5034690;28;20036;-91
2021/05/22 01:19:06;;;;;;;5.57;4.38;;;409.70;1843.20;;;;;;5034457;28;20032;-91
2021/05/22 01:21:36;;;;;;;7.90;4.22;;;409.70;1843.20;;;;;;5035613;28;20017;-91
2021/05/22 01:24:09;;;;;;;8.13;4.05;;;409.70;1817.60;;;;;;5034513;28;20064;-91
2021/05/22 01:26:36;;;;;;;6.43;3.78;;;409.70;1843.20;;;;;;5034356;28;20065;-91
2021/05/22 01:29:03;;;;;;;9.68;4.50;;;409.70;1843.20;;;;;;5034459;28;20030;-92
2021/05/22 01:31:32;;;;;;;11.88;4.82;;;409.70;1817.60;;;;;;5034240;28;20096;-91
2021/05/22 01:33:58;;;;;;;5.05;4.28;;;409.60;1843.20;;;;;;5034186;28;20030;-92
2021/05/22 01:36:23;;;;;;;7.95;4.78;;;409.60;1843.20;;;;;;5034086;28;20496;-91
2021/05/22 01:38:49;;;;;;;7.03;4.10;;;409.60;1843.20;;;;;;5033882;28;20148;-91
2021/05/22 01:41:15;;;;;;;13.25;4.43;;;409.60;1843.20;;;;;;5034231;28;20056;-91
2021/05/22 01:43:45;;;;;;;9.88;4.30;;;409.60;1843.20;;;;;;5033988;28;20037;-91
2021/05/22 01:46:11;;;;;;;5.43;3.47;;;409.60;1817.60;;;;;;5034259;28;20470;-91
2021/05/22 01:48:38;;;;;;;8.40;4.18;;;409.60;1817.60;;;;;;5034010;28;20100;-92
2021/05/22 01:51:12;;;;;;;8.98;4.28;;;409.60;1817.60;;;;;;5033892;28;20478;-92
2021/05/22 01:53:42;;;;;;;6.95;4.35;;;409.60;1817.60;;;;;;5034215;28;20056;-91
2021/05/22 01:56:10;;;;;;;6.55;3.75;;;409.60;1817.60;;;;;;5033789;28;20465;-92
2021/05/22 01:58:37;;;;;;;6.18;3.58;;;409.60;1817.60;;;;;;5033789;28;20487;-92
2021/05/22 02:01:03;;;;;;;7.15;3.78;;;409.70;1792.00;;;;;;5034000;28;20025;-91
2021/05/22 02:03:46;;;;;;;9.77;3.97;;;409.60;1817.60;;;;;;5033715;28;20037;-91
2021/05/22 02:06:18;;;;;;;5.63;3.20;;;409.60;1817.60;;;;;;5033819;28;20120;-91
2021/05/22 02:08:46;;;;;;;11.88;3.63;;;409.60;1817.60;;;;;;5033656;28;20078;-92
2021/05/22 02:11:12;;;;;;;7.57;3.75;;;409.60;1817.60;;;;;;5033644;28;20026;-92
2021/05/22 02:13:40;;;;;;;8.10;3.72;;;384.90;1792.00;;;;;;5033814;28;20124;-93
2021/05/22 02:16:08;;;;;;;4.53;3.50;;;384.80;1792.00;;;;;;5033768;28;20021;-92
2021/05/22 02:18:35;;;;;;;5.45;3.33;;;384.80;1792.00;;;;;;5033822;28;20092;-93
2021/05/22 02:21:03;;;;;;;6.00;2.75;;;384.80;1817.60;;;;;;5033707;28;20128;-92
2021/05/22 02:23:32;;;;;;;4.75;2.97;;;384.70;1817.60;;;;;;5033392;28;20034;-92
2021/05/22 02:25:59;;;;;;;4.82;3.00;;;384.70;1792.00;;;;;;5033446;28;20026;-91
2021/05/22 02:28:30;;;;;;;5.70;3.08;;;384.80;1792.00;;;;;;5033360;28;20037;-93
2021/05/22 02:30:56;;;;;;;6.20;3.15;;;384.70;1792.00;;;;;;5033427;28;20032;-92
2021/05/22 02:33:24;;;;;;;6.53;3.08;;;384.70;1792.00;;;;;;5033395;28;20036;-92
2021/05/22 02:35:52;;;;;;;4.47;3.28;;;384.70;1792.00;;;;;;5033286;28;20032;-93
2021/05/22 02:38:33;;;;;;;4.82;3.08;;;384.70;1817.60;;;;;;5033259;28;20112;-92
2021/05/22 02:41:07;;;;;;;7.65;3.25;;;384.70;1817.60;;;;;;5033337;28;20029;-91
2021/05/22 02:43:34;;;;;;;7.28;3.15;;;384.70;1817.60;;;;;;5033248;28;20041;-92
2021/05/22 02:46:01;;;;;;;4.78;3.38;;;384.70;1817.60;;;;;;5033515;28;20489;-92
2021/05/22 02:48:31;;;;;;;8.63;3.40;;;384.60;1817.60;;;;;;5033126;28;20017;-92
2021/05/22 02:50:59;;;;;;;5.63;3.15;;;384.70;1817.60;;;;;;5033349;28;20029;-92
2021/05/22 02:53:28;;;;;;;7.03;3.17;;;384.60;1817.60;;;;;;5033392;28;20367;-93
2021/05/22 02:55:54;;;;;;;5.25;3.30;;;384.60;1817.60;;;;;;5033871;28;20058;-92
2021/05/22 02:58:20;;;;;;;5.15;2.90;;;384.70;1817.60;;;;;;5037215;28;20037;-92
2021/05/22 03:00:47;;;;;;;5.90;3.40;;;384.70;1817.60;;;;;;5037104;28;20381;-92
2021/05/22 03:03:16;;;;;;;7.43;2.78;;;384.70;1817.60;;;;;;5036871;28;20037;-92
2021/05/22 03:05:42;;;;;;;9.05;2.28;;;384.70;1817.60;;;;;;5037382;28;20515;-92
2021/05/22 03:08:08;;;;;;;8.48;3.40;;;384.70;1817.60;;;;;;5037090;28;20117;-92
2021/05/22 03:10:35;;;;;;;5.55;3.00;;;384.70;1817.60;;;;;;5037030;28;20053;-92
2021/05/22 03:13:01;;;;;;;4.68;2.60;;;384.70;1792.00;;;;;;5037000;28;20381;-92
2021/05/22 03:15:28;;;;;;;6.80;2.75;;;384.70;1817.60;;;;;;5036897;28;20113;-93
2021/05/22 03:17:54;;;;;;;5.45;2.90;;;384.70;1817.60;;;;;;5036902;28;20029;-92
2021/05/22 03:20:20;;;;;;;6.00;3.10;;;384.70;1817.60;;;;;;5053330;28;20021;-92
2021/05/22 03:22:46;;;;;;;4.65;2.65;;;384.70;1817.60;;;;;;5036805;28;20049;-91
2021/05/22 03:25:12;;;;;;;4.60;2.42;;;384.80;1817.60;;;;;;5036915;28;20490;-93
2021/05/22 03:27:38;;;;;;;4.45;2.65;;;384.80;1817.60;;;;;;5036996;28;20018;-93
2021/05/22 03:30:07;;;;;;;4.40;3.10;;;384.70;1817.60;;;;;;5036597;28;20021;-92
2021/05/22 03:32:33;;;;;;;5.85;2.78;;;384.70;1817.60;;;;;;5036640;28;20519;-92
2021/05/22 03:34:59;;;;;;;6.00;3.15;;;384.70;1843.20;;;;;;5036559;28;20391;-92
2021/05/22 03:37:25;;;;;;;6.75;2.78;;;384.70;1817.60;;;;;;5036390;28;20030;-92
2021/05/22 03:39:51;;;;;;;5.45;2.65;;;384.80;1817.60;;;;;;5036524;28;20040;-92
2021/05/22 03:42:17;;;;;;;4.22;3.03;;;384.80;1817.60;;;;;;5036268;28;20036;-92
2021/05/22 03:44:42;;;;;;;6.40;2.88;;;384.80;1817.60;;;;;;5036295;28;20046;-92
2021/05/22 03:47:08;;;;;;;5.30;2.67;;;384.90;1817.60;;;;;;5036404;28;20120;-92
2021/05/22 03:49:35;;;;;;;5.07;2.95;;;384.90;1817.60;;;;;;5036282;28;20076;-92
2021/05/22 03:52:01;;;;;;;4.53;2.47;;;384.90;1792.00;;;;;;5036450;28;20036;-92
2021/05/22 03:54:27;;;;;;;8.18;2.55;;;384.90;1792.00;;;;;;5036103;28;20048;-92
2021/05/22 03:56:53;;;;;;;4.50;2.35;;;409.60;1817.60;;;;;;5036616;28;20589;-92
2021/05/22 03:59:19;;;;;;;5.15;2.63;;;409.60;1817.60;;;;;;5036419;28;20029;-91
2021/05/22 04:01:45;;;;;;;7.82;2.60;;;409.60;1817.60;;;;;;5036260;28;20112;-91
2021/05/22 04:04:11;;;;;;;5.70;2.30;;;409.60;1817.60;;;;;;5035982;28;20038;-91
2021/05/22 04:06:37;;;;;;;6.72;2.25;;;409.70;1792.00;;;;;;5035699;28;20029;-91
2021/05/22 04:09:04;;;;;;;4.65;2.35;;;409.70;1792.00;;;;;;5036030;28;20071;-92
2021/05/22 04:11:30;;;;;;;3.75;2.85;;;409.70;1792.00;;;;;;5035947;28;20032;-92
2021/05/22 04:13:56;;;;;;;5.05;3.33;;;409.70;1792.00;;;;;;5035729;28;20029;-92
2021/05/22 04:16:22;;;;;;;7.10;3.20;;;409.70;1792.00;;;;;;5036009;28;20026;-91
2021/05/22 04:18:47;;;;;;;6.80;3.08;;;409.80;1792.00;;;;;;5035836;28;20500;-90
2021/05/22 04:21:14;;;;;;;9.30;2.75;;;409.70;1817.60;;;;;;5035583;28;20050;-91
2021/05/22 04:23:40;;;;;;;6.47;3.03;;;409.70;1817.60;;;;;;5035490;28;20032;-91
2021/05/22 04:26:07;;;;;;;9.30;2.85;;;409.80;1817.60;;;;;;5035569;28;20470;-92
2021/05/22 04:28:33;;;;;;;5.72;2.88;;;409.80;1817.60;;;;;;5035699;28;20021;-92
2021/05/22 04:30:59;;;;;;;8.90;2.90;;;409.80;1843.20;;;;;;5035822;28;20026;-91
2021/05/22 04:33:25;;;;;;;4.97;2.78;;;409.90;1843.20;;;;;;5035658;28;20028;-91
2021/05/22 04:35:51;;;;;;;7.18;3.20;;;409.90;1843.20;;;;;;5035197;28;20026;-91
2021/05/22 04:38:16;;;;;;;4.82;2.83;;;409.90;1843.20;;;;;;5035337;28;20026;-92
2021/05/22 04:40:43;;;;;;;7.65;3.30;;;410.00;1843.20;;;;;;5035335;28;20025;-91
2021/05/22 04:43:10;;;;;;;7.85;3.10;;;410.00;1817.60;;;;;;5035222;28;20044;-92
2021/05/22 04:45:36;;;;;;;5.13;2.88;;;410.00;1843.20;;;;;;5035262;28;20481;-91
2021/05/22 04:48:02;;;;;;;7.80;3.70;;;410.00;1843.20;;;;;;5035242;28;20029;-92
2021/05/22 04:50:29;;;;;;;10.93;3.50;;;410.00;1843.20;;;;;;5035185;28;20025;-91
2021/05/22 04:52:55;;;;;;;8.10;3.20;;;410.00;1843.20;;;;;;5035216;28;20021;-91
2021/05/22 04:55:21;;;;;;;6.07;3.40;;;410.00;1843.20;;;;;;5034620;28;20045;-91
2021/05/22 04:57:47;;;;;;;5.63;3.03;;;410.00;1843.20;;;;;;5051743;28;20124;-92
2021/05/22 05:00:14;;;;;;;6.45;2.50;;;410.10;1843.20;;;;;;5034948;28;20071;-91
2021/05/22 05:02:40;;;;;;;6.68;2.88;;;410.10;1843.20;;;;;;5035089;28;20116;-91
2021/05/22 05:05:06;;;;;;;3.70;2.60;;;410.10;1843.20;;;;;;5034913;28;20176;-91
2021/05/22 05:07:32;;;;;;;6.10;2.83;;;410.20;1817.60;;;;;;5034924;28;20029;-92
2021/05/22 05:09:58;;;;;;;6.05;2.85;;;410.20;1817.60;;;;;;5034783;28;20036;-92
2021/05/22 05:12:24;;;;;;;6.13;2.90;;;410.20;1817.60;;;;;;5034705;28;20025;-91
2021/05/22 05:14:50;;;;;;;4.85;3.08;;;410.30;1843.20;;;;;;5034814;28;20080;-91
2021/05/22 05:17:16;;;;;;;7.35;2.58;;;410.30;1843.20;;;;;;5034688;28;20474;-92
2021/05/22 05:19:42;;;;;;;7.45;2.67;;;410.30;1843.20;;;;;;5034034;28;20025;-92
2021/05/22 05:22:08;;;;;;;5.63;2.78;;;410.40;1843.20;;;;;;5034538;28;20034;-92
2021/05/22 05:24:34;;;;;;;4.78;2.45;;;410.40;1843.20;;;;;;5034355;28;20049;-93
2021/05/22 05:27:00;;;;;;;5.45;2.70;;;410.40;1843.20;;;;;;5034400;28;20029;-92
2021/05/22 05:29:26;;;;;;;6.63;2.38;;;410.50;1817.60;;;;;;5034370;28;20021;-91
2021/05/22 05:31:52;;;;;;;6.18;2.78;;;435.20;1817.60;;;;;;5034302;28;20098;-92
2021/05/22 05:34:18;;;;;;;6.70;2.60;;;435.30;1817.60;;;;;;5034467;28;20022;-92
2021/05/22 05:36:44;;;;;;;4.55;2.40;;;435.30;1817.60;;;;;;5034346;28;20058;-91
2021/05/22 05:39:11;;;;;;;6.95;2.83;;;435.40;1792.00;;;;;;5034229;28;20474;-93
2021/05/22 05:41:37;;;;;;;3.30;2.38;;;435.50;1817.60;;;;;;5034221;28;20032;-92
2021/05/22 05:44:03;;;;;;;4.75;2.58;;;435.50;1843.20;;;;;;5034053;28;20036;-91
2021/05/22 05:46:29;;;;;;;4.85;2.35;;;435.60;1817.60;;;;;;5034159;28;20048;-91
2021/05/22 05:48:55;;;;;;;5.25;2.60;;;435.60;1817.60;;;;;;5033867;28;20354;-91
2021/05/22 05:51:21;;;;;;;5.75;2.47;;;435.70;1817.60;;;;;;5035186;28;20048;-92
2021/05/22 05:53:47;;;;;;;6.47;2.42;;;435.70;1817.60;;;;;;5033831;28;20473;-91
2021/05/22 05:56:13;;;;;;;8.32;2.65;;;435.80;1817.60;;;;;;5033927;28;20064;-91
2021/05/22 05:58:38;;;;;;;4.95;2.65;;;435.90;1817.60;;;;;;5027757;28;20099;-91
2021/05/22 06:01:07;;;;;;;6.47;2.30;;;435.90;1817.60;;;;;;5040782;28;20013;-91
2021/05/22 06:03:33;;;;;;;5.65;2.40;;;436.00;1843.20;;;;;;5040009;28;20687;-92
2021/05/22 06:05:59;;;;;;;6.18;2.30;;;436.00;1817.60;;;;;;5022769;28;20068;-91
2021/05/22 06:08:25;;;;;;;3.78;2.20;;;436.00;1817.60;;;;;;5040706;28;20025;-91
2021/05/22 06:10:53;;;;;;;6.07;2.35;;;436.10;1792.00;;;;;;5038944;28;20101;-92
2021/05/22 06:13:30;;;;;;;4.55;2.15;;;460.80;1843.20;;;;;;5030181;28;20026;-91
2021/05/22 06:16:01;;;;;;;6.30;2.30;;;460.80;1817.60;;;;;;5030324;28;20113;-91
2021/05/22 06:18:33;;;;;;;4.30;2.10;;;460.90;1817.60;;;;;;5030138;28;20093;-92
2021/05/22 06:21:00;;;;;;;2.75;1.45;;;460.90;1817.60;;;;;;5030205;28;20061;-90
2021/05/22 06:23:26;;;;;;;4.82;1.80;;;461.10;1792.00;;;;;;5029732;28;20033;-91
2021/05/22 06:25:53;;;;;;;6.70;1.67;;;461.20;1792.00;;;;;;5014664;28;20112;-90
2021/05/22 06:28:19;;;;;;;5.18;1.65;;;461.40;1766.40;;;;;;5029552;28;20072;-92
2021/05/22 06:30:46;;;;;;;9.20;1.80;;;461.50;1689.60;;;;;;5028894;28;20030;-91
2021/05/22 06:33:12;;;;;;;4.07;1.60;;;461.60;1638.40;;;;;;5030306;28;20069;-91
2021/05/22 06:35:38;;;;;;;9.52;1.70;;;486.40;1612.80;;;;;;5030000;28;20030;-93
2021/05/22 06:38:04;;;;;;;6.82;1.50;;;486.50;1612.80;;;;;;5030138;28;20030;-93
2021/05/22 06:40:30;;;;;;;2.67;1.63;;;486.60;1587.20;;;;;;5029748;28;20096;-93
2021/05/22 06:42:56;;;;;;;4.85;1.50;;;486.80;1587.20;;;;;;5029385;28;20052;-92
2021/05/22 06:45:24;;;;;;;2.47;1.05;;;486.90;1561.60;;;;;;5029512;28;20075;-91
2021/05/22 06:47:50;;;;;;;5.30;1.20;;;486.90;1484.80;;;;;;5029800;28;20072;-91
2021/05/22 06:50:16;;;;;;;5.18;1.45;;;487.10;1484.80;;;;;;5029799;28;20199;-92
2021/05/22 06:52:42;;;;;;;2.53;1.30;;;487.10;1510.40;;;;;;5029734;28;20022;-92
2021/05/22 06:55:08;;;;;;;2.83;1.02;;;487.20;1510.40;;;;;;5035806;28;20060;-92
2021/05/22 06:57:34;;;;;;;4.57;1.27;;;487.20;1484.80;;;;;;5013976;28;20103;-92
2021/05/22 07:00:00;;;;;;;4.75;1.00;;;512.00;1433.60;;;;;;5046394;28;20026;-93
2021/05/22 07:02:27;;;;;;;6.60;1.40;;;512.00;1459.20;;;;;;5013210;28;20041;-92
2021/05/22 07:04:53;;;;;;;2.30;1.08;;;512.00;1459.20;;;;;;5013277;28;20073;-91
2021/05/22 07:07:18;;;;;;;5.13;1.00;;;512.00;1408.00;;;;;;5003681;28;20124;-93
2021/05/22 07:09:44;;;;;;;4.28;1.08;;;512.10;1484.80;;;;;;5014577;28;20034;-91
2021/05/22 07:12:10;;;;;;;4.35;1.25;;;512.20;1433.60;;;;;;4998226;28;20027;-93
2021/05/22 07:14:37;;;;;;;5.18;1.05;;;512.30;1433.60;;;;;;5013798;28;20087;-93
2021/05/22 07:17:02;;;;;;;4.05;1.20;;;512.10;1408.00;;;;;;5011614;28;20453;-93
2021/05/22 07:19:28;;;;;;;5.53;1.30;;;512.00;1459.20;;;;;;4993458;28;20113;-93
2021/05/22 07:21:55;;;;;;;4.70;1.25;;;512.00;1459.20;;;;;;5026780;28;20018;-91
2021/05/22 07:24:21;;;;;;;4.82;1.13;;;512.00;1484.80;;;;;;5017528;28;20048;-92
2021/05/22 07:26:49;;;;;;;3.63;1.50;;;512.00;1484.80;;;;;;5015670;28;20105;-94
2021/05/22 07:29:15;;;;;;;2.28;1.20;;;512.00;1484.80;;;;;;5017437;28;20025;-95
2021/05/22 07:31:42;;;;;;;3.20;1.45;;;487.30;1459.20;;;;;;5001273;28;20023;-92
2021/05/22 07:34:09;;;;;;;3.53;1.20;;;487.20;1433.60;;;;;;5005385;28;20117;-94
2021/05/22 07:36:36;;;;;;;2.70;1.45;;;487.20;1433.60;;;;;;4993259;28;20026;-95
2021/05/22 07:39:04;;;;;;;6.50;1.92;;;487.20;1459.20;;;;;;4993128;28;20042;-94
2021/05/22 07:41:30;;;;;;;4.50;1.65;;;487.20;1459.20;;;;;;4993213;28;20415;-93
2021/05/22 07:43:56;;;;;;;5.70;1.95;;;487.20;1484.80;;;;;;5005156;28;20030;-93
2021/05/22 07:46:22;;;;;;;4.55;1.70;;;487.20;1484.80;;;;;;5026813;28;20088;-95
2021/05/22 07:48:48;;;;;;;3.63;1.42;;;487.20;1510.40;;;;;;5017220;28;20029;-96
2021/05/22 07:51:17;;;;;;;5.65;1.35;;;487.20;1510.40;;;;;;5014677;28;20028;-91
2021/05/22 07:53:43;;;;;;;3.97;1.70;;;487.20;1484.80;;;;;;5013129;28;20034;-93
2021/05/22 07:56:08;;;;;;;6.55;1.73;;;487.20;1484.80;;;;;;5032720;28;20044;-92
2021/05/22 07:58:34;;;;;;;3.70;1.60;;;487.20;1510.40;;;;;;5029502;28;20104;-93
2021/05/22 08:01:00;;;;;;;4.85;1.70;;;487.20;1484.80;;;;;;5033246;28;20594;-92
2021/05/22 08:03:26;;;;;;;6.38;1.70;;;487.30;1484.80;;;;;;5037809;28;20412;-92
2021/05/22 08:05:52;;;;;;;3.92;1.58;;;512.00;1459.20;;;;;;5048816;28;20029;-94
2021/05/22 08:08:18;;;;;;;7.80;1.40;;;512.00;1459.20;;;;;;5047910;28;20059;-94
2021/05/22 08:10:43;;;;;;;3.95;1.80;;;512.00;1433.60;;;;;;5046502;28;20033;-93
2021/05/22 08:13:10;;;;;;;9.82;1.90;;;512.00;1408.00;;;;;;5050141;28;20469;-93
2021/05/22 08:15:37;;;;;;;4.70;1.83;;;512.00;1408.00;;;;;;5054967;28;20021;-94
2021/05/22 08:18:03;;;;;;;6.88;1.83;;;512.00;1433.60;;;;;;5033238;28;20029;-94
2021/05/22 08:20:29;;;;;;;9.05;1.95;;;512.00;1459.20;;;;;;5048031;28;20018;-90
2021/05/22 08:22:55;;;;;;;5.18;1.80;;;487.10;1408.00;;;;;;5029790;28;20038;-94
2021/05/22 08:25:22;;;;;;;6.50;1.83;;;487.30;1459.20;;;;;;5043797;28;20098;-95
2021/05/22 08:27:50;;;;;;;9.88;2.15;;;487.30;1459.20;;;;;;5036125;28;20021;-92
2021/05/22 08:30:16;;;;;;;10.00;1.83;;;487.30;1433.60;;;;;;5035044;28;20033;-90
2021/05/22 08:32:42;;;;;;;8.73;3.30;;;512.20;1459.20;;;;;;5033581;28;20370;-91
2021/05/22 08:35:09;;;;;;;19.52;7.82;;;487.20;1459.20;;;;;;5031368;28;20018;-90
2021/05/22 08:37:35;;;;;;;21.35;9.10;;;487.30;1459.20;;;;;;5383640;22;20023;-63
2021/05/22 08:40:02;;;;;;;27.05;11.52;;;487.30;1484.80;;;;;;5056439;28;20040;-63
2021/05/22 08:42:29;;;;;;;27.67;11.13;;;487.30;1510.40;;;;;;5058878;28;20031;-64
2021/05/22 08:45:10;;;;;;;32.70;11.60;;;487.30;1536.00;;;;;;5059871;28;20087;-63
2021/05/22 08:47:36;;;;;;;43.22;15.65;;;512.00;1561.60;;;;;;5066663;28;20013;-63
2021/05/22 08:50:06;;;;;;;49.38;11.82;;;487.30;1587.20;;;;;;5057269;28;20024;-62
2021/05/22 08:52:32;;;;;;;37.60;18.27;;;487.30;1638.40;;;;;;5057885;28;20106;-62
2021/05/22 08:54:58;;;;;;;39.95;18.10;;;512.00;1612.80;;;;;;5055080;28;20020;-66
2021/05/22 08:57:24;;;;;;;38.95;12.38;;;512.00;1664.00;;;;;;5056150;28;20025;-63
2021/05/22 08:59:50;;;;;;;29.92;10.25;;;512.00;1612.80;;;;;;5057464;28;20027;-63
2021/05/22 09:02:21;;;;;;;17.73;7.80;;;512.00;1664.00;;;;;;5056415;28;20385;-63
2021/05/22 09:05:08;;;;;;;10.95;4.50;;;512.10;1587.20;;;;;;5056714;28;20543;-62
2021/05/22 09:07:45;;;;;;;25.17;11.75;;;512.10;1561.60;;;;;;5050778;28;20029;-73
2021/05/22 09:10:15;;;;;;;21.90;8.60;;;512.10;1536.00;;;;;;5054045;28;20021;-65
2021/05/22 09:12:44;;;;;;;12.98;5.55;;;512.20;1561.60;;;;;;5054536;28;20536;-69
2021/05/22 09:15:13;;;;;;;12.73;4.38;;;512.20;1561.60;;;;;;5053283;28;20472;-68
2021/05/22 09:17:46;;;;;;;12.73;3.70;;;512.20;1561.60;;;;;;5052149;28;20079;-68
2021/05/22 09:20:17;;;;;;;11.45;3.42;;;512.20;1561.60;;;;;;5054383;28;20025;-66
2021/05/22 09:22:43;;;;;;;10.48;3.83;;;512.10;1536.00;;;;;;5065193;28;20032;-71
2021/05/22 09:25:10;;;;;;;9.57;3.45;;;512.10;1536.00;;;;;;5053275;28;20028;-70
2021/05/22 09:27:41;;;;;;;7.78;3.30;;;512.00;1536.00;;;;;;5055022;28;20468;-65
2021/05/22 09:30:12;;;;;;;7.63;3.08;;;512.00;1510.40;;;;;;5069839;28;20028;-65
2021/05/22 09:32:38;;;;;;;10.05;3.45;;;512.00;1536.00;;;;;;5052814;28;20048;-68
2021/05/22 09:35:06;;;;;;;10.30;3.90;;;512.00;1536.00;;;;;;5053350;28;20029;-63
2021/05/22 09:37:46;;;;;;;8.93;3.63;;;512.00;1587.20;;;;;;5053608;28;20673;-77
2021/05/22 09:40:33;;;;;;;22.75;6.50;;;512.00;1536.00;;;;;;5058190;28;20023;-77
2021/05/22 09:43:01;;;;;;;33.95;6.03;;;512.00;1536.00;;;;;;5052714;28;20021;-62
2021/05/22 09:45:33;;;;;;;35.28;5.15;;;512.00;1561.60;;;;;;5053273;28;20029;-63
2021/05/22 09:48:16;;;;;;;9.27;3.10;;;512.00;1561.60;;;;;;5053577;28;20017;-65
2021/05/22 09:50:46;;;;;;;9.48;3.67;;;512.00;1536.00;;;;;;5051846;28;20044;-62
2021/05/22 09:53:25;;;;;;;8.80;3.33;;;512.00;1484.80;;;;;;5050830;28;20024;-61
2021/05/22 09:56:24;;;;;;;19.52;4.65;;;512.00;1510.40;;;;;;5052998;28;20108;-61
2021/05/22 09:58:53;;;;;;;24.90;7.60;;;512.00;1510.40;;;;;;5049047;28;20021;-61
2021/05/22 10:01:27;;;;;;;30.67;5.63;;;512.00;1510.40;;;;;;5052080;28;20476;-75
2021/05/22 10:03:53;;;;;;;18.48;5.55;;;512.00;1510.40;;;;;;5051903;28;20536;-65
2021/05/22 10:06:20;;;;;;;54.85;7.50;;;512.00;1536.00;;;;;;5052054;28;20027;-66
2021/05/22 10:08:46;;;;;;;99.82;9.27;;;512.00;1561.60;;;;;;5051370;28;20481;-76
2021/05/22 10:11:12;;;;;;;25.08;5.63;;;512.10;1561.60;;;;;;5051053;28;20065;-71
2021/05/22 10:13:42;;;;;;;14.02;5.88;;;512.10;1587.20;;;;;;5052536;28;20025;-70
2021/05/22 10:16:09;;;;;;;14.63;6.32;;;512.10;1536.00;;;;;;5052384;28;20028;-62
2021/05/22 10:18:35;;;;;;;11.25;4.13;;;512.00;1510.40;;;;;;5056635;28;20027;-62
2021/05/22 10:21:04;;;;;;;15.38;3.35;;;512.00;1510.40;;;;;;5053051;28;20029;-64
2021/05/22 10:23:30;;;;;;;14.40;3.38;;;512.00;1561.60;;;;;;5055081;28;20025;-62
2021/05/22 10:25:57;;;;;;;48.38;33.70;;;512.00;1536.00;;;;;;5053123;28;20576;-62
2021/05/22 10:28:24;;;;;;;34.58;15.65;;;512.00;1536.00;;;;;;5053515;28;20024;-62
2021/05/22 10:30:50;;;;;;;9.00;5.45;;;512.00;1561.60;;;;;;5053017;28;20041;-65
2021/05/22 10:33:17;;;;;;;15.48;4.47;;;512.00;1638.40;;;;;;5050598;28;20387;-62
2021/05/22 10:35:47;;;;;;;17.88;4.95;;;512.00;1638.40;;;;;;5051413;28;20033;-68
2021/05/22 10:38:32;;;;;;;15.20;3.78;;;512.00;1612.80;;;;;;5051490;28;20041;-72
2021/05/22 10:41:02;;;;;;;10.27;4.20;;;512.00;1664.00;;;;;;5051942;28;20472;-66
2021/05/22 10:43:46;;;;;;;16.33;5.07;;;512.00;1689.60;;;;;;5051564;28;20064;-63
2021/05/22 10:46:13;;;;;;;19.73;4.88;;;512.00;1740.80;;;;;;5052480;28;20033;-64
2021/05/22 10:48:39;;;;;;;8.15;3.65;;;512.00;1766.40;;;;;;5048156;28;20426;-76
2021/05/22 10:51:49;;;;;;;16.92;4.47;;;512.00;1766.40;;;;;;5055054;28;20029;-64
2021/05/22 10:54:17;;;;;;;9.63;4.00;;;512.00;1817.60;;;;;;5038055;28;20061;-73
2021/05/22 10:57:06;;;;;;;9.38;3.88;;;512.00;1766.40;;;;;;5051383;28;20056;-70
2021/05/22 10:59:32;;;;;;;8.40;2.92;;;512.00;1740.80;;;;;;5051657;28;20480;-66
2021/05/22 11:02:00;;;;;;;11.25;3.42;;;512.00;1766.40;;;;;;5053838;28;20033;-61
2021/05/22 11:04:27;;;;;;;17.20;3.83;;;512.10;1740.80;;;;;;5054396;28;20132;-70
2021/05/22 11:06:56;;;;;;;8.10;2.67;;;512.10;1766.40;;;;;;5052034;28;20103;-70
2021/05/22 11:09:25;;;;;;;11.32;3.65;;;512.20;1766.40;;;;;;5052337;28;20044;-72
2021/05/22 11:11:51;;;;;;;9.45;3.33;;;;;;;;;;5049569;28;20023;-77
2021/05/22 11:14:43;;;;;;;9.18;3.00;;;537.60;1766.40;;;;;;5051896;28;20021;-76
2021/05/22 11:17:26;;;;;;;6.43;3.05;;;512.50;1766.40;;;;;;5053094;28;20033;-73
2021/05/22 11:22:29;;;;;;;7.25;1.92;;;512.60;1689.60;;;;;;5054303;28;19991;-62
2021/05/22 11:25:07;;;;;;;5.57;1.80;;;512.70;1638.40;;;;;;5053935;28;20036;-63
2021/05/22 11:30:14;;;;;;;11.65;2.22;;;512.80;1587.20;;;;;;5059488;28;20036;-70
2021/05/22 11:32:47;;;;;;;12.00;3.22;;;512.90;1587.20;;;;;;5054464;28;20032;-61
2021/05/22 11:35:29;;;;;;;6.78;1.83;;;537.60;1612.80;;;;;;5055373;28;20025;-65
2021/05/22 11:37:56;;;;;;;4.43;2.25;;;537.60;1587.20;;;;;;5053241;28;20072;-71
2021/05/22 11:40:40;;;;;;;4.63;1.83;;;537.60;1587.20;;;;;;5054817;28;20040;-67
2021/05/22 11:45:54;;;;;;;10.70;2.65;;;537.70;1536.00;;;;;;5055328;28;20512;-77
2021/05/22 11:48:40;;;;;;;4.05;1.63;;;537.80;1510.40;;;;;;5053982;28;20031;-63
2021/05/22 11:51:20;;;;;;;4.15;1.80;;;537.90;1536.00;;;;;;5051470;28;20052;-62
2021/05/22 11:53:49;;;;;;;9.73;2.00;;;537.90;1484.80;;;;;;5051798;28;20032;-69
2021/05/22 11:56:16;;;;;;;8.25;1.90;;;538.00;1459.20;;;;;;5054594;28;20032;-61
2021/05/22 11:58:44;;;;;;;11.43;2.00;;;538.10;1433.60;;;;;;5054159;28;20013;-70
2021/05/22 12:01:15;;;;;;;2.53;1.40;;;538.10;1459.20;;;;;;5065611;28;20059;-61
2021/05/22 12:03:43;;;;;;;3.13;1.52;;;538.10;1433.60;;;;;;5059402;28;20028;-64
2021/05/22 12:06:20;;;;;;;4.22;1.60;;;538.20;1408.00;;;;;;5053246;28;20039;-62
2021/05/22 12:09:01;;;;;;;4.60;1.60;;;538.20;1408.00;;;;;;5052262;28;20045;-61
2021/05/22 12:11:38;;;;;;;7.97;1.92;;;538.20;1408.00;;;;;;5051337;28;20036;-71
2021/05/22 12:14:06;;;;;;;6.40;1.67;;;538.40;1459.20;;;;;;5050994;28;20496;-62
2021/05/22 12:16:33;;;;;;;9.48;3.40;;;538.40;1433.60;;;;;;5053170;28;20052;-64
2021/05/22 12:19:14;;;;;;;5.75;1.98;;;563.20;1433.60;;;;;;5053525;28;20024;-65
2021/05/22 12:21:40;;;;;;;6.18;1.58;;;563.20;1459.20;;;;;;5051563;28;20009;-75
2021/05/22 12:24:12;;;;;;;9.82;4.53;;;563.20;1408.00;;;;;;5053333;28;20033;-65
2021/05/22 12:26:45;;;;;;;10.20;1.88;;;563.30;1433.60;;;;;;5056005;28;20116;-66
2021/05/22 12:29:11;;;;;;;10.73;1.80;;;563.30;1382.40;;;;;;5054109;28;20032;-60
2021/05/22 12:31:37;;;;;;;3.28;1.65;;;563.20;1408.00;;;;;;5054800;28;20027;-70